Time;durP1;ratioP1;P1;durP2;ratioP2;P2;SDS_P1;SDS_P2;PMS_P1;PMS_P2;Temp;Humidity;BMP_temperature;BMP_pressure;BME280_temperature;BME280_humidity;BME280_pressure;Samples;Min_cycle;Max_cycle;Signal;HPM_P1;HPM_P2
2022/04/05 00:01:47;;;;;;;11.95;8.23;;;;;;;7.63;53.00;98610.00;5155672;28;20057;-67
2022/04/05 00:04:37;;;;;;;13.00;9.18;;;;;;;8.08;51.77;98612.19;5180178;28;20057;-67
2022/04/05 00:07:28;;;;;;;18.38;10.20;;;;;;;8.13;51.38;98606.47;5181578;28;20132;-67
2022/04/05 00:10:18;;;;;;;15.23;9.88;;;;;;;8.07;52.23;98607.84;5155113;28;20121;-66
2022/04/05 00:13:08;;;;;;;12.52;8.85;;;;;;;7.93;52.17;98598.53;5146303;28;20078;-66
2022/04/05 00:15:58;;;;;;;17.25;9.38;;;;;;;7.86;52.18;98602.69;5164334;28;20054;-67
2022/04/05 00:18:49;;;;;;;16.92;9.00;;;;;;;7.91;51.62;98599.63;5173026;28;20042;-67
2022/04/05 00:21:40;;;;;;;14.65;8.75;;;;;;;8.28;50.52;98599.81;5176563;28;20424;-67
2022/04/05 00:24:29;;;;;;;16.08;8.35;;;;;;;7.98;51.01;98580.50;5175846;28;20052;-67
2022/04/05 00:27:20;;;;;;;15.05;8.85;;;;;;;7.83;51.42;98578.38;5161680;28;20069;-67
2022/04/05 00:30:11;;;;;;;15.00;9.20;;;;;;;7.95;52.36;98588.69;5179752;28;20529;-67
2022/04/05 00:33:01;;;;;;;13.63;9.10;;;;;;;7.97;51.66;98585.88;5175284;28;20050;-67
2022/04/05 00:35:51;;;;;;;15.40;8.93;;;;;;;8.29;51.02;98575.06;5165171;28;20073;-67
2022/04/05 00:38:41;;;;;;;12.63;8.05;;;;;;;8.30;50.76;98583.81;5171970;28;20612;-67
2022/04/05 00:41:31;;;;;;;14.30;8.43;;;;;;;8.33;50.99;98579.09;5174077;28;20062;-67
2022/04/05 00:44:21;;;;;;;14.35;8.20;;;;;;;7.78;52.20;98557.66;5183748;28;20058;-67
2022/04/05 00:47:20;;;;;;;12.32;8.38;;;;;;;7.68;52.29;98575.28;5164913;28;20130;-67
2022/04/05 00:50:11;;;;;;;15.48;8.90;;;;;;;8.24;51.28;98562.31;5174530;28;20413;-67
2022/04/05 00:53:03;;;;;;;14.27;8.95;;;;;;;7.90;52.34;98561.00;5178616;28;20053;-68
2022/04/05 00:55:57;;;;;;;14.52;8.25;;;;;;;8.35;51.77;98557.84;5181674;28;20054;-67
2022/04/05 00:58:52;;;;;;;8.90;6.15;;;;;;;8.36;51.72;98557.69;5170053;28;20515;-67
2022/04/05 01:01:45;;;;;;;13.27;8.50;;;;;;;8.63;51.56;98550.88;5168163;28;20148;-67
2022/04/05 01:04:36;;;;;;;13.03;7.73;;;;;;;8.06;52.57;98557.84;5178594;28;20049;-67
2022/04/05 01:07:30;;;;;;;19.88;8.73;;;;;;;8.60;51.92;98551.16;5161399;28;20392;-67
2022/04/05 01:10:21;;;;;;;12.70;8.93;;;;;;;8.40;52.85;98564.38;5158970;28;20061;-67
2022/04/05 01:13:11;;;;;;;12.20;8.23;;;;;;;8.22;53.37;98568.69;5165796;28;20136;-67
2022/04/05 01:16:11;;;;;;;13.35;8.13;;;;;;;8.07;53.32;98549.75;5167085;28;20527;-67
2022/04/05 01:19:02;;;;;;;15.43;8.30;;;;;;;7.93;54.60;98556.28;5164436;28;20065;-67
2022/04/05 01:21:52;;;;;;;13.50;8.18;;;;;;;8.26;54.07;98551.56;5182159;28;20058;-67
2022/04/05 01:24:43;;;;;;;13.70;8.68;;;;;;;8.16;55.43;98540.19;5175457;28;20497;-68
2022/04/05 01:27:33;;;;;;;14.02;8.85;;;;;;;8.10;55.57;98546.84;5164482;28;20523;-67
2022/04/05 01:30:23;;;;;;;18.27;9.38;;;;;;;8.12;54.59;98546.72;5141306;28;20107;-67
2022/04/05 01:33:13;;;;;;;14.93;8.13;;;;;;;8.07;55.46;98548.94;5171727;28;20061;-67
2022/04/05 01:36:04;;;;;;;17.88;9.32;;;;;;;8.07;56.39;98538.38;5166470;28;20068;-68
2022/04/05 01:38:54;;;;;;;17.08;8.38;;;;;;;8.06;55.48;98507.69;5182616;28;20143;-67
2022/04/05 01:41:44;;;;;;;17.27;9.77;;;;;;;8.09;56.48;98529.34;5167602;28;20425;-67
2022/04/05 01:44:37;;;;;;;16.27;8.38;;;;;;;8.42;54.98;98536.03;5174149;28;20069;-67
2022/04/05 01:47:26;;;;;;;15.52;9.95;;;;;;;8.02;57.60;98546.72;5163345;28;20125;-67
2022/04/05 01:50:16;;;;;;;15.02;8.95;;;;;;;7.86;57.32;98531.44;5164926;28;20057;-68
2022/04/05 01:53:06;;;;;;;17.63;8.93;;;;;;;8.17;56.06;98526.00;5154045;28;20500;-66
2022/04/05 01:55:56;;;;;;;16.02;9.05;;;;;;;7.52;59.02;98529.16;5160003;28;20420;-68
2022/04/05 01:58:49;;;;;;;15.60;9.45;;;;;;;7.70;58.49;98528.50;5178564;28;20049;-68
2022/04/05 02:01:40;;;;;;;15.70;9.20;;;;;;;7.56;58.78;98503.34;5158525;28;20057;-68
2022/04/05 02:04:30;;;;;;;15.05;9.73;;;;;;;7.74;59.66;98521.97;5175881;28;20143;-68
2022/04/05 02:07:21;;;;;;;14.57;9.00;;;;;;;7.67;59.75;98526.13;5180951;28;20064;-69
2022/04/05 02:10:11;;;;;;;16.92;9.40;;;;;;;7.76;58.99;98520.84;5169654;28;20057;-68
2022/04/05 02:13:01;;;;;;;14.82;9.43;;;;;;;7.53;60.60;98512.34;5162482;28;20057;-67
2022/04/05 02:16:02;;;;;;;17.02;10.00;;;;;;;7.52;60.42;98513.34;5164289;28;20090;-68
2022/04/05 02:18:54;;;;;;;17.17;10.48;;;;;;;7.72;61.47;98513.38;5148701;28;20058;-68
2022/04/05 02:21:45;;;;;;;14.73;9.38;;;;;;;7.54;59.92;98506.09;5162999;28;20070;-66
2022/04/05 02:24:35;;;;;;;15.68;9.55;;;;;;;7.61;60.65;98505.56;5154388;28;20038;-66
2022/04/05 02:27:26;;;;;;;16.33;8.93;;;;;;;7.58;60.40;98516.38;5168210;28;20085;-68
2022/04/05 02:30:17;;;;;;;15.18;9.25;;;;;;;8.05;58.58;98506.84;5133412;28;20062;-68
2022/04/05 02:33:11;;;;;;;16.58;9.75;;;;;;;7.96;59.28;98505.88;5160511;28;20053;-68
2022/04/05 02:36:03;;;;;;;18.55;9.18;;;;;;;7.84;59.82;98517.53;5178943;28;20579;-68
2022/04/05 02:38:53;;;;;;;13.93;9.40;;;;;;;7.82;60.47;98519.47;5172168;28;20060;-67
2022/04/05 02:41:45;;;;;;;14.20;9.07;;;;;;;7.75;60.54;98518.38;5164217;28;20127;-67
2022/04/05 02:44:38;;;;;;;19.80;9.95;;;;;;;7.94;59.77;98515.72;5160922;28;20061;-67
2022/04/05 02:47:28;;;;;;;23.42;9.68;;;;;;;7.81;60.55;98527.53;5147970;28;20203;-67
2022/04/05 02:50:19;;;;;;;18.02;9.60;;;;;;;7.66;61.26;98529.75;5132714;28;20049;-67
2022/04/05 02:53:10;;;;;;;18.80;9.90;;;;;;;7.79;60.43;98522.41;5153455;28;20069;-67
2022/04/05 02:56:01;;;;;;;17.50;10.65;;;;;;;7.66;62.57;98527.09;5165142;28;20057;-67
2022/04/05 02:58:54;;;;;;;16.50;10.65;;;;;;;7.71;61.25;98522.22;5155964;28;20049;-67
2022/04/05 03:01:44;;;;;;;17.50;10.52;;;;;;;7.42;63.28;98523.03;5152592;28;20108;-67
2022/04/05 03:04:36;;;;;;;26.42;11.85;;;;;;;7.43;63.10;98526.50;5169753;28;20065;-67
2022/04/05 03:07:29;;;;;;;18.00;9.88;;;;;;;7.21;64.82;98525.72;5147517;28;20200;-67
2022/04/05 03:10:20;;;;;;;19.17;11.23;;;;;;;7.38;63.97;98515.50;5150410;28;20177;-67
2022/04/05 03:13:14;;;;;;;19.48;11.25;;;;;;;7.50;63.61;98523.19;5147423;28;20049;-67
2022/04/05 03:16:06;;;;;;;25.45;11.80;;;;;;;7.47;63.82;98519.97;5155309;28;20073;-67
2022/04/05 03:18:58;;;;;;;21.67;11.25;;;;;;;7.38;65.51;98529.53;5141709;28;20128;-67
2022/04/05 03:21:50;;;;;;;26.40;11.13;;;;;;;7.44;64.43;98530.81;5150128;28;20072;-67
2022/04/05 03:24:41;;;;;;;33.97;11.50;;;;;;;7.62;63.71;98539.75;5154192;28;20179;-67
2022/04/05 03:27:31;;;;;;;19.77;11.43;;;;;;;7.48;63.75;98534.81;5167250;28;20164;-67
2022/04/05 03:30:23;;;;;;;18.67;11.45;;;;;;;7.55;63.43;98535.97;5161971;28;20652;-67
2022/04/05 03:33:15;;;;;;;21.67;12.32;;;;;;;7.44;64.49;98531.63;5172722;28;20131;-67
2022/04/05 03:36:06;;;;;;;20.35;11.88;;;;;;;7.48;64.34;98537.47;5148646;28;20069;-67
2022/04/05 03:38:56;;;;;;;22.08;12.50;;;;;;;7.20;64.47;98529.34;5159367;28;20436;-67
2022/04/05 03:41:47;;;;;;;21.80;11.65;;;;;;;7.24;65.05;98528.09;5162109;28;20061;-67
2022/04/05 03:44:37;;;;;;;20.05;11.13;;;;;;;7.22;65.57;98523.97;5162208;28;20050;-67
2022/04/05 03:47:28;;;;;;;21.67;11.13;;;;;;;7.39;63.51;98519.84;5150429;28;20423;-67
2022/04/05 03:50:19;;;;;;;21.60;11.40;;;;;;;7.19;64.87;98526.84;5148316;28;20058;-67
2022/04/05 03:53:11;;;;;;;24.60;12.32;;;;;;;7.14;65.11;98518.50;5156161;28;20541;-67
2022/04/05 03:56:02;;;;;;;23.25;12.75;;;;;;;6.79;66.30;98517.13;5166047;28;20073;-67
2022/04/05 03:58:54;;;;;;;21.42;12.70;;;;;;;6.73;66.70;98517.66;5153435;28;20611;-68
2022/04/05 04:01:47;;;;;;;25.65;13.02;;;;;;;6.91;65.94;98502.88;5149656;28;20058;-67
2022/04/05 04:04:38;;;;;;;21.42;12.60;;;;;;;6.40;68.50;98518.72;5149860;28;20478;-67
2022/04/05 04:07:30;;;;;;;27.80;13.93;;;;;;;6.40;68.00;98477.41;5156090;28;20084;-68
2022/04/05 04:10:21;;;;;;;26.05;13.80;;;;;;;6.84;66.51;98512.28;5153358;28;20061;-67
2022/04/05 04:13:18;;;;;;;24.90;14.25;;;;;;;6.56;67.98;98503.28;5159196;28;20188;-68
2022/04/05 04:16:10;;;;;;;25.45;14.13;;;;;;;6.54;68.27;98505.19;5170092;28;20057;-67
2022/04/05 04:19:10;;;;;;;21.38;13.48;;;;;;;5.79;68.96;98401.75;5142445;28;20065;-67
2022/04/05 04:22:07;;;;;;;32.60;14.83;;;;;;;6.24;68.40;98475.22;5162960;28;20060;-68
2022/04/05 04:24:58;;;;;;;28.27;14.48;;;;;;;6.77;67.58;98500.59;5165597;28;20054;-68
2022/04/05 04:27:50;;;;;;;22.80;13.88;;;;;;;6.98;66.46;98498.72;5150710;28;20061;-68
2022/04/05 04:30:40;;;;;;;24.63;13.75;;;;;;;7.07;66.00;98503.22;5168586;28;20546;-68
2022/04/05 04:33:31;;;;;;;23.40;13.43;;;;;;;7.50;64.31;98507.34;5164625;28;20046;-69
2022/04/05 04:36:21;;;;;;;22.55;13.90;;;;;;;7.15;66.05;98514.88;5164516;28;20434;-70
2022/04/05 04:39:12;;;;;;;27.30;13.82;;;;;;;7.25;65.51;98513.97;5164005;28;20073;-67
2022/04/05 04:42:02;;;;;;;29.20;14.45;;;;;;;7.39;64.94;98506.66;5164789;28;20048;-67
2022/04/05 04:44:53;;;;;;;23.10;13.40;;;;;;;6.97;67.11;98506.78;5172983;28;20163;-67
2022/04/05 04:47:43;;;;;;;23.98;13.15;;;;;;;7.14;66.68;98513.22;5173736;28;20061;-68
2022/04/05 04:50:33;;;;;;;24.42;13.85;;;;;;;7.07;66.06;98495.31;5151619;28;20076;-68
2022/04/05 04:53:23;;;;;;;26.60;14.00;;;;;;;7.21;65.94;98514.34;5177021;28;20045;-70
2022/04/05 04:56:19;;;;;;;26.88;15.50;;;;;;;7.02;66.19;98499.34;5184563;28;20049;-69
2022/04/05 04:59:08;;;;;;;25.25;15.23;;;;;;;6.90;67.41;98493.31;5174974;28;20144;-69
2022/04/05 05:01:59;;;;;;;27.85;15.45;;;;;;;7.12;66.86;98516.00;5166474;28;20081;-70
2022/04/05 05:04:50;;;;;;;24.95;14.85;;;;;;;6.92;67.39;98515.09;5168400;28;20113;-69
2022/04/05 05:07:40;;;;;;;27.38;15.45;;;;;;;6.85;67.71;98521.84;5164721;28;20101;-68
2022/04/05 05:10:31;;;;;;;28.52;15.55;;;;;;;7.28;66.45;98523.41;5180536;28;20053;-68
2022/04/05 05:13:20;;;;;;;26.23;15.27;;;;;;;7.13;67.34;98519.47;5160984;28;20129;-69
2022/04/05 05:16:12;;;;;;;23.52;15.02;;;;;;;7.28;67.19;98518.13;5171606;28;20054;-69
2022/04/05 05:19:05;;;;;;;27.63;15.63;;;;;;;7.13;67.12;98522.13;5153540;28;20704;-69
2022/04/05 05:21:55;;;;;;;26.48;15.57;;;;;;;7.10;67.74;98522.38;5154487;28;20095;-71
2022/04/05 05:24:45;;;;;;;32.45;17.10;;;;;;;7.07;67.83;98519.03;5177446;28;20099;-71
2022/04/05 05:27:36;;;;;;;34.45;20.45;;;;;;;7.01;68.60;98524.81;5164356;28;20140;-71
2022/04/05 05:30:27;;;;;;;42.03;21.90;;;;;;;6.93;69.59;98532.56;5167908;28;20153;-71
2022/04/05 05:33:17;;;;;;;36.65;21.10;;;;;;;6.98;68.79;98516.34;5170409;28;20061;-70
2022/04/05 05:36:08;;;;;;;32.75;19.80;;;;;;;6.92;69.21;98530.91;5146414;28;20156;-71
2022/04/05 05:38:58;;;;;;;34.70;19.05;;;;;;;6.91;68.47;98513.41;5163224;28;20069;-70
2022/04/05 05:41:48;;;;;;;29.02;17.50;;;;;;;7.06;67.94;98545.53;5161360;28;20049;-69
2022/04/05 05:44:38;;;;;;;30.20;17.10;;;;;;;7.16;68.89;98537.66;5162424;28;20060;-70
2022/04/05 05:47:27;;;;;;;32.50;17.80;;;;;;;7.19;68.14;98532.97;5165556;28;20431;-70
2022/04/05 05:50:18;;;;;;;23.65;15.98;;;;;;;7.09;68.14;98523.34;5146904;28;20652;-70
2022/04/05 05:53:08;;;;;;;28.10;16.95;;;;;;;7.17;68.08;98544.59;5161522;28;20193;-73
2022/04/05 05:55:58;;;;;;;33.83;18.55;;;;;;;7.22;68.03;98532.69;5181048;28;20195;-70
2022/04/05 05:58:50;;;;;;;34.10;18.88;;;;;;;7.08;68.63;98543.59;5170613;28;20057;-69
2022/04/05 06:01:40;;;;;;;30.80;17.58;;;;;;;7.15;68.26;98544.75;5154518;28;20585;-68
2022/04/05 06:04:30;;;;;;;35.08;17.88;;;;;;;7.14;68.22;98540.41;5157734;28;20049;-70
2022/04/05 06:07:20;;;;;;;38.38;18.25;;;;;;;7.32;67.79;98532.72;5178037;28;20073;-71
2022/04/05 06:10:12;;;;;;;33.10;18.17;;;;;;;7.45;68.15;98550.91;5167211;28;20053;-72
2022/04/05 06:13:02;;;;;;;36.00;17.67;;;;;;;7.35;68.62;98547.44;5150467;28;20053;-71
2022/04/05 06:15:53;;;;;;;28.45;15.98;;;;;;;7.34;68.46;98551.88;5176657;28;20050;-71
2022/04/05 06:18:43;;;;;;;29.20;17.73;;;;;;;7.43;68.79;98540.53;5164568;28;20061;-68
2022/04/05 06:21:33;;;;;;;25.17;15.50;;;;;;;7.26;68.08;98555.19;5164357;28;20497;-70
2022/04/05 06:24:23;;;;;;;27.73;16.25;;;;;;;7.57;68.07;98552.50;5174210;28;20468;-69
2022/04/05 06:27:14;;;;;;;33.88;16.13;;;;;;;7.41;69.46;98553.00;5169975;28;20111;-71
2022/04/05 06:30:05;;;;;;;23.85;14.27;;;;;;;7.75;67.24;98555.31;5170600;28;20169;-71
2022/04/05 06:33:06;;;;;;;28.58;15.00;;;;;;;7.58;68.29;98558.59;5171922;28;20049;-71
2022/04/05 06:35:58;;;;;;;26.30;16.02;;;;;;;7.64;68.01;98561.53;5171552;28;20057;-70
2022/04/05 06:38:48;;;;;;;27.40;15.80;;;;;;;7.59;68.21;98562.94;5168209;28;20062;-74
2022/04/05 06:41:46;;;;;;;28.25;16.40;;;;;;;7.46;68.52;98560.53;5163041;28;20483;-73
2022/04/05 06:44:36;;;;;;;28.35;16.25;;;;;;;7.58;68.48;98555.97;5164535;28;20065;-71
2022/04/05 06:47:26;;;;;;;31.63;16.55;;;;;;;7.59;68.55;98553.19;5168227;28;20555;-73
2022/04/05 06:50:24;;;;;;;29.20;15.65;;;;;;;7.69;68.42;98566.41;5172690;28;20081;-71
2022/04/05 06:53:14;;;;;;;25.92;14.45;;;;;;;7.61;68.69;98559.16;5171558;28;20495;-73
2022/04/05 06:56:06;;;;;;;31.55;15.18;;;;;;;7.85;68.32;98556.16;5165875;28;20075;-72
2022/04/05 06:58:56;;;;;;;28.48;13.48;;;;;;;7.70;68.24;98562.78;5165572;28;20064;-69
2022/04/05 07:01:47;;;;;;;26.25;14.15;;;;;;;7.77;68.29;98558.63;5166822;28;20092;-68
2022/04/05 07:04:37;;;;;;;30.75;14.63;;;;;;;7.93;68.05;98551.00;5181687;28;20061;-71
2022/04/05 07:07:27;;;;;;;24.90;14.48;;;;;;;7.87;68.54;98551.56;5178655;28;20061;-69
2022/04/05 07:10:19;;;;;;;29.10;14.00;;;;;;;7.91;67.25;98550.34;5162122;28;20125;-68
2022/04/05 07:13:09;;;;;;;30.20;14.75;;;;;;;7.69;68.00;98545.31;5178391;28;20064;-69
2022/04/05 07:15:59;;;;;;;24.23;13.20;;;;;;;7.94;67.05;98550.03;5168773;28;20054;-68
2022/04/05 07:18:50;;;;;;;21.10;12.80;;;;;;;7.98;66.16;98521.56;5178926;28;20108;-68
2022/04/05 07:21:40;;;;;;;26.38;12.82;;;;;;;8.08;66.15;98561.16;5177476;28;20112;-70
2022/04/05 07:24:30;;;;;;;23.70;12.75;;;;;;;7.93;67.46;98558.94;5150178;28;20112;-70
2022/04/05 07:27:20;;;;;;;25.65;14.27;;;;;;;7.99;66.81;98550.47;5172140;28;20072;-69
2022/04/05 07:30:12;;;;;;;26.42;12.23;;;;;;;7.93;67.46;98558.09;5171856;28;20065;-71
2022/04/05 07:33:02;;;;;;;22.85;12.88;;;;;;;8.00;67.74;98557.41;5159708;28;20475;-68
2022/04/05 07:35:52;;;;;;;27.33;13.27;;;;;;;8.04;67.18;98560.59;5168398;28;20436;-68
2022/04/05 07:38:42;;;;;;;21.50;12.45;;;;;;;8.23;66.13;98539.47;5167523;28;20438;-69
2022/04/05 07:41:32;;;;;;;25.55;13.10;;;;;;;8.09;66.83;98547.00;5165380;28;20054;-71
2022/04/05 07:44:22;;;;;;;22.30;12.85;;;;;;;8.28;66.50;98540.84;5176240;28;20054;-73
2022/04/05 07:47:12;;;;;;;21.75;13.30;;;;;;;8.19;67.53;98542.56;5176380;28;20468;-70
2022/04/05 07:50:04;;;;;;;26.42;13.05;;;;;;;8.08;67.67;98548.81;5161708;28;20070;-72
2022/04/05 07:52:55;;;;;;;20.55;12.77;;;;;;;8.07;67.44;98547.13;5147398;28;20065;-71
2022/04/05 07:55:45;;;;;;;20.58;13.10;;;;;;;8.10;67.20;98551.31;5174098;28;20120;-71
2022/04/05 07:58:35;;;;;;;24.58;13.52;;;;;;;8.36;67.11;98557.69;5166223;28;20122;-72
2022/04/05 08:01:29;;;;;;;20.15;12.73;;;;;;;8.05;67.88;98556.19;5161823;28;20057;-69
2022/04/05 08:04:19;;;;;;;23.87;13.67;;;;;;;8.13;67.57;98556.31;5143032;28;20331;-69
2022/04/05 08:07:09;;;;;;;24.83;13.95;;;;;;;8.43;66.66;98560.63;5173053;28;20568;-71
2022/04/05 08:10:00;;;;;;;20.40;12.60;;;;;;;8.35;67.03;98558.66;5180563;28;20424;-69
2022/04/05 08:12:50;;;;;;;24.02;13.52;;;;;;;8.33;67.13;98557.97;5179869;28;20133;-70
2022/04/05 08:15:41;;;;;;;20.30;12.38;;;;;;;8.45;67.09;98561.34;5172812;28;20057;-71
2022/04/05 08:18:31;;;;;;;29.65;13.82;;;;;;;8.51;67.19;98567.84;5180101;28;20120;-69
2022/04/05 08:21:21;;;;;;;22.05;14.13;;;;;;;8.46;66.84;98571.75;5166666;28;20133;-69
2022/04/05 08:24:11;;;;;;;22.80;14.80;;;;;;;8.32;68.54;98574.78;5161362;28;20061;-69
2022/04/05 08:27:02;;;;;;;23.38;13.98;;;;;;;8.51;66.64;98571.34;5166496;28;20057;-71
2022/04/05 08:29:53;;;;;;;22.73;13.18;;;;;;;8.55;67.23;98570.09;5170301;28;20052;-70
2022/04/05 08:32:45;;;;;;;24.42;13.45;;;;;;;8.45;68.00;98575.38;5169789;28;20053;-72
2022/04/05 08:35:35;;;;;;;23.98;13.50;;;;;;;8.50;68.03;98576.75;5159378;28;20057;-69
2022/04/05 08:38:25;;;;;;;20.52;13.35;;;;;;;8.66;67.83;98580.47;5172535;28;20057;-69
2022/04/05 08:41:19;;;;;;;21.25;11.93;;;;;;;8.67;68.17;98579.50;5176354;28;20077;-71
2022/04/05 08:44:10;;;;;;;;;;;;;;;8.77;67.77;98571.56;5166842;28;20180;-71
2022/04/05 08:47:02;;;;;;;19.85;12.40;;;;;;;9.03;66.97;98573.56;5159322;28;20398;-70
2022/04/05 08:49:52;;;;;;;24.45;13.35;;;;;;;8.91;68.54;98583.50;5160460;28;20085;-71
2022/04/05 08:52:44;;;;;;;21.73;12.10;;;;;;;8.74;67.21;98585.09;5177763;28;20142;-71
2022/04/05 08:55:37;;;;;;;18.77;12.20;;;;;;;8.65;66.82;98570.91;5164304;28;20151;-71
2022/04/05 08:58:27;;;;;;;29.23;17.95;;;;;;;8.92;67.44;98580.72;5180626;28;20424;-70
2022/04/05 09:01:17;;;;;;;19.75;12.38;;;;;;;8.95;66.67;98582.25;5156770;28;20115;-72
2022/04/05 09:04:10;;;;;;;25.13;17.35;;;;;;;9.06;66.78;98581.22;5176586;28;20056;-70
2022/04/05 09:07:18;;;;;;;23.73;14.65;;;;;;;9.03;67.13;98574.41;5178597;28;20054;-70
2022/04/05 09:10:15;;;;;;;23.15;13.25;;;;;;;9.06;67.81;98578.59;5177999;28;20057;-75
2022/04/05 09:13:10;;;;;;;24.80;14.27;;;;;;;9.23;67.18;98574.34;5175617;28;20057;-68
2022/04/05 09:16:04;;;;;;;25.33;14.75;;;;;;;9.05;68.39;98566.34;5167331;28;20058;-69
2022/04/05 09:18:55;;;;;;;21.65;12.88;;;;;;;9.10;68.04;98545.56;5164746;28;20046;-71
2022/04/05 09:21:49;;;;;;;19.13;12.80;;;;;;;9.44;65.72;98576.75;5169803;28;20046;-72
2022/04/05 09:24:43;;;;;;;19.15;13.02;;;;;;;9.37;66.30;98582.66;5173417;28;20062;-71
2022/04/05 09:27:48;;;;;;;19.75;13.75;;;;;;;9.30;66.62;98575.41;5164590;28;20054;-68
2022/04/05 09:30:41;;;;;;;30.85;14.82;;;;;;;9.09;68.40;98578.28;5165010;28;20671;-68
2022/04/05 09:33:34;;;;;;;28.07;15.63;;;;;;;9.12;68.60;98580.66;5179381;28;20512;-73
2022/04/05 09:36:32;;;;;;;19.10;13.43;;;;;;;9.29;67.65;98579.88;5169443;28;20065;-74
2022/04/05 09:39:23;;;;;;;22.55;15.00;;;;;;;9.30;68.17;98586.00;5166334;28;20056;-71
2022/04/05 09:42:13;;;;;;;25.38;15.63;;;;;;;9.24;69.72;98582.16;5175214;28;20052;-69
2022/04/05 09:45:04;;;;;;;27.35;15.13;;;;;;;9.37;68.26;98580.00;5167227;28;20092;-71
2022/04/05 09:48:04;;;;;;;26.55;13.57;;;;;;;9.72;66.33;98585.53;5169077;28;20583;-73
2022/04/05 09:51:10;;;;;;;28.35;15.80;;;;;;;9.73;67.17;98582.72;5171276;28;20123;-68
2022/04/05 09:54:00;;;;;;;25.02;13.93;;;;;;;9.64;66.53;98586.28;5183731;28;20147;-74
2022/04/05 09:56:50;;;;;;;21.88;14.93;;;;;;;9.44;68.98;98584.69;5167517;28;20064;-68
2022/04/05 09:59:43;;;;;;;18.20;13.18;;;;;;;9.79;66.49;98584.78;5157744;28;20062;-69
2022/04/05 10:02:33;;;;;;;21.30;13.27;;;;;;;9.25;68.75;98589.09;5168276;28;20077;-69
2022/04/05 10:05:23;;;;;;;21.92;13.82;;;;;;;9.32;68.47;98590.19;5181938;28;20049;-70
2022/04/05 10:08:13;;;;;;;23.05;14.60;;;;;;;9.50;69.39;98589.41;5183550;28;20065;-71
2022/04/05 10:11:04;;;;;;;26.75;14.82;;;;;;;9.39;68.43;98583.31;5183201;28;20058;-71
2022/04/05 10:13:55;;;;;;;25.95;14.00;;;;;;;9.87;68.10;98589.34;5163803;28;20468;-72
2022/04/05 10:16:48;;;;;;;22.00;12.88;;;;;;;9.92;66.18;98578.28;5171587;28;20432;-73
2022/04/05 10:19:43;;;;;;;24.10;12.25;;;;;;;10.17;66.13;98585.50;5163458;28;20124;-73
2022/04/05 10:22:34;;;;;;;19.55;12.50;;;;;;;9.78;67.18;98566.41;5163251;28;20195;-70
2022/04/05 10:25:25;;;;;;;17.75;11.82;;;;;;;9.93;67.45;98585.25;5179709;28;20061;-69
2022/04/05 10:28:17;;;;;;;19.48;12.10;;;;;;;9.96;68.90;98587.59;5179680;28;20136;-69
2022/04/05 10:31:24;;;;;;;19.67;11.90;;;;;;;9.68;68.51;98566.47;5165096;28;20164;-72
2022/04/05 10:34:28;;;;;;;22.05;12.82;;;;;;;9.75;69.47;98570.19;5174220;28;20175;-69
2022/04/05 10:37:30;;;;;;;27.85;17.45;;;;;;;9.91;69.16;98589.88;5181345;28;20089;-69
2022/04/05 10:40:21;;;;;;;27.73;17.70;;;;;;;9.96;68.82;98582.31;5175513;28;20188;-72
2022/04/05 10:43:16;;;;;;;37.60;20.77;;;;;;;10.01;68.59;98580.06;5180658;28;20064;-71
2022/04/05 10:46:07;;;;;;;37.20;19.95;;;;;;;9.84;70.08;98573.75;5164696;28;20129;-70
2022/04/05 10:48:59;;;;;;;30.52;16.38;;;;;;;9.86;69.47;98562.00;5166886;28;20057;-70
2022/04/05 10:52:12;;;;;;;30.02;14.27;;;;;;;9.84;69.82;98579.06;5166034;28;20081;-70
2022/04/05 10:55:06;;;;;;;26.92;14.02;;;;;;;9.98;69.44;98583.81;5141756;28;20492;-69
2022/04/05 10:58:08;;;;;;;21.77;15.27;;;;;;;10.05;69.51;98581.41;5165935;28;20552;-70
2022/04/05 11:01:13;;;;;;;24.30;14.43;;;;;;;10.35;69.21;98585.53;5166919;28;20138;-69
2022/04/05 11:04:17;;;;;;;22.20;12.13;;;;;;;10.35;67.64;98577.56;5176784;28;20080;-68
2022/04/05 11:07:10;;;;;;;29.13;18.42;;;;;;;10.61;67.64;98582.94;5157024;28;20061;-68
2022/04/05 11:10:00;;;;;;;27.17;16.27;;;;;;;10.46;66.34;98574.72;5142476;28;20104;-68
2022/04/05 11:13:09;;;;;;;26.15;17.02;;;;;;;10.30;68.35;98569.25;5177291;28;20107;-68
2022/04/05 11:16:01;;;;;;;21.88;14.35;;;;;;;10.56;66.59;98574.59;5161638;28;20639;-68
2022/04/05 11:18:57;;;;;;;22.70;13.90;;;;;;;10.57;65.95;98568.31;5166282;28;20103;-68
2022/04/05 11:22:00;;;;;;;20.75;13.60;;;;;;;10.98;64.30;98566.75;5167450;28;20098;-71
2022/04/05 11:24:57;;;;;;;22.00;15.40;;;;;;;10.49;68.00;98576.19;5149735;28;20074;-69
2022/04/05 11:27:49;;;;;;;31.92;15.90;;;;;;;10.52;68.21;98574.06;5160900;28;20649;-69
2022/04/05 11:31:02;;;;;;;20.50;12.95;;;;;;;10.63;66.79;98575.66;5161214;28;20128;-68
2022/04/05 11:33:53;;;;;;;22.00;14.40;;;;;;;10.28;67.99;98580.00;5165718;28;20116;-69
2022/04/05 11:36:43;;;;;;;24.00;16.60;;;;;;;10.44;68.96;98570.53;5160339;28;20104;-69
2022/04/05 11:39:36;;;;;;;24.58;15.52;;;;;;;10.33;68.75;98568.94;5161354;28;20416;-69
2022/04/05 11:42:26;;;;;;;24.20;14.85;;;;;;;10.44;68.47;98563.41;5144762;28;20046;-69
2022/04/05 11:45:17;;;;;;;22.40;13.63;;;;;;;10.58;68.25;98564.66;5146567;28;20073;-70
2022/04/05 11:48:16;;;;;;;26.85;14.65;;;;;;;10.72;68.61;98574.72;5150541;28;20054;-71
2022/04/05 11:51:09;;;;;;;19.70;13.23;;;;;;;10.79;68.04;98573.13;5160635;28;20052;-70
2022/04/05 11:54:11;;;;;;;20.52;12.88;;;;;;;11.08;66.91;98573.78;5161633;28;20188;-71
2022/04/05 11:57:05;;;;;;;24.23;13.63;;;;;;;10.97;67.24;98559.81;5162442;28;20052;-70
2022/04/05 12:00:08;;;;;;;34.67;13.00;;;;;;;10.76;67.39;98561.97;5163161;28;20101;-71
2022/04/05 12:03:05;;;;;;;18.98;12.65;;;;;;;11.04;66.93;98566.13;5163374;28;20053;-69
2022/04/05 12:05:56;;;;;;;19.92;12.45;;;;;;;11.02;66.42;98573.41;5148402;28;20069;-70
2022/04/05 12:08:48;;;;;;;18.85;11.95;;;;;;;10.94;67.43;98562.75;5173388;28;20065;-70
2022/04/05 12:11:41;;;;;;;22.50;14.10;;;;;;;11.18;68.19;98569.19;5152740;28;20061;-71
2022/04/05 12:14:32;;;;;;;24.63;15.25;;;;;;;11.43;67.26;98567.50;5169087;28;20077;-72
2022/04/05 12:17:24;;;;;;;18.95;12.75;;;;;;;10.99;67.78;98549.88;5149812;28;20061;-70
2022/04/05 12:20:17;;;;;;;23.20;13.93;;;;;;;11.13;68.04;98558.25;5173424;28;20069;-71
2022/04/05 12:23:19;;;;;;;22.75;14.10;;;;;;;11.28;68.08;98568.09;5174665;28;20603;-70
2022/04/05 12:26:31;;;;;;;21.65;13.25;;;;;;;11.40;66.86;98563.34;5158695;28;20060;-72
2022/04/05 12:29:22;;;;;;;24.42;14.23;;;;;;;11.55;67.29;98565.38;5165065;28;20042;-72
2022/04/05 12:32:14;;;;;;;17.40;10.95;;;;;;;11.28;66.88;98570.72;5179027;28;20718;-70
2022/04/05 12:35:06;;;;;;;20.55;12.05;;;;;;;11.40;67.64;98562.50;5175371;28;20214;-70
2022/04/05 12:37:57;;;;;;;16.23;11.48;;;;;;;11.41;68.13;98559.69;5169555;28;20054;-71
2022/04/05 12:40:47;;;;;;;18.30;11.18;;;;;;;11.51;67.61;98568.34;5182250;28;20061;-71
2022/04/05 12:43:37;;;;;;;20.65;11.82;;;;;;;11.49;67.88;98541.16;5183851;28;20053;-71
2022/04/05 12:46:36;;;;;;;14.45;9.75;;;;;;;11.42;67.35;98565.81;5166096;28;20046;-71
2022/04/05 12:49:35;;;;;;;13.73;10.50;;;;;;;11.35;66.46;98562.13;5166249;28;20062;-71
2022/04/05 12:52:28;;;;;;;16.85;8.00;;;;;;;11.60;66.02;98563.91;5164916;28;20114;-71
2022/04/05 12:55:19;;;;;;;5.32;4.07;;;;;;;10.70;66.11;98555.50;5172657;28;20197;-71
2022/04/05 12:58:10;;;;;;;4.30;2.80;;;;;;;10.86;65.37;98554.78;5161396;28;20452;-71
2022/04/05 13:01:01;;;;;;;3.75;3.00;;;;;;;10.44;67.88;98541.38;5164889;28;20047;-71
2022/04/05 13:03:58;;;;;;;5.22;3.17;;;;;;;11.33;66.15;98550.88;5167581;28;20180;-71
2022/04/05 13:06:59;;;;;;;7.80;4.70;;;;;;;11.61;64.92;98554.13;5152078;28;20568;-70
2022/04/05 13:09:49;;;;;;;4.72;3.15;;;;;;;11.04;64.74;98550.22;5175097;28;20112;-70
2022/04/05 13:12:40;;;;;;;11.25;4.70;;;;;;;11.36;64.90;98540.75;5184416;28;20052;-71
2022/04/05 13:15:30;;;;;;;16.17;5.13;;;;;;;11.40;64.79;98550.06;5164389;28;20136;-70
2022/04/05 13:18:20;;;;;;;7.72;3.80;;;;;;;11.25;64.51;98549.00;5163564;28;20053;-70
2022/04/05 13:21:13;;;;;;;11.02;4.32;;;;;;;11.37;64.11;98545.06;5176024;28;20424;-70
2022/04/05 13:24:05;;;;;;;6.82;4.18;;;;;;;10.74;66.62;98543.59;5170659;28;20601;-71